Time;durP1;ratioP1;P1;durP2;ratioP2;P2;SDS_P1;SDS_P2;PMS_P1;PMS_P2;Temp;Humidity;BMP_temperature;BMP_pressure;BME280_temperature;BME280_humidity;BME280_pressure;Samples;Min_cycle;Max_cycle;Signal;HPM_P1;HPM_P2
2022/03/02 00:00:15;;;;;;;43.90;23.35;;;8.20;94.70;;;;;;5098049;28;20069;-84
2022/03/02 00:02:42;;;;;;;49.45;22.95;;;8.20;94.80;;;;;;5114918;28;20058;-84
2022/03/02 00:05:08;;;;;;;44.45;22.42;;;8.20;94.90;;;;;;5097925;28;20050;-84
2022/03/02 00:07:34;;;;;;;43.92;22.60;;;8.10;95.00;;;;;;5114715;28;20444;-84
2022/03/02 00:10:00;;;;;;;44.85;23.77;;;8.10;95.10;;;;;;5097785;28;20051;-84
2022/03/02 00:12:25;;;;;;;45.45;23.77;;;8.00;95.10;;;;;;5097745;28;20050;-84
2022/03/02 00:14:51;;;;;;;41.00;21.80;;;8.10;95.10;;;;;;5097357;28;20056;-84
2022/03/02 00:17:16;;;;;;;44.75;22.42;;;8.00;95.20;;;;;;5080488;28;20043;-84
2022/03/02 00:19:42;;;;;;;42.35;22.70;;;8.10;95.10;;;;;;5114649;28;20040;-84
2022/03/02 00:22:09;;;;;;;45.75;23.10;;;8.00;95.10;;;;;;5114424;28;20169;-84
2022/03/02 00:24:35;;;;;;;50.50;24.17;;;8.10;95.20;;;;;;5081255;28;20048;-84
2022/03/02 00:27:00;;;;;;;44.15;23.38;;;8.10;95.20;;;;;;5114908;28;20435;-83
2022/03/02 00:29:26;;;;;;;41.65;22.25;;;8.10;95.20;;;;;;5097490;28;20054;-84
2022/03/02 00:31:52;;;;;;;43.05;22.27;;;8.20;95.10;;;;;;5081253;28;20126;-84
2022/03/02 00:34:18;;;;;;;45.08;23.63;;;8.10;95.10;;;;;;5114598;28;20043;-85
2022/03/02 00:36:44;;;;;;;43.78;23.30;;;8.20;95.10;;;;;;5113948;28;20147;-84
2022/03/02 00:39:10;;;;;;;44.55;22.23;;;8.10;95.10;;;;;;5114336;28;20044;-84
2022/03/02 00:41:36;;;;;;;45.88;23.98;;;8.10;95.00;;;;;;5080537;28;20047;-84
2022/03/02 00:44:02;;;;;;;45.17;23.55;;;8.10;95.10;;;;;;5097122;28;20390;-84
2022/03/02 00:46:31;;;;;;;47.25;22.85;;;8.10;95.10;;;;;;5114137;28;20051;-84
2022/03/02 00:49:01;;;;;;;43.17;23.27;;;8.00;95.10;;;;;;5097598;28;20097;-84
2022/03/02 00:51:27;;;;;;;46.53;22.75;;;8.00;95.20;;;;;;5114061;28;20104;-84
2022/03/02 00:53:54;;;;;;;51.30;25.92;;;8.00;95.40;;;;;;5096833;28;20051;-84
2022/03/02 00:56:21;;;;;;;46.58;23.80;;;8.10;95.20;;;;;;5114254;28;20070;-84
2022/03/02 00:58:47;;;;;;;49.78;24.27;;;8.10;95.10;;;;;;5095916;28;20490;-84
2022/03/02 01:01:13;;;;;;;47.67;24.77;;;8.20;95.00;;;;;;5079903;28;20047;-84
2022/03/02 01:03:38;;;;;;;52.88;24.42;;;8.20;94.90;;;;;;5063359;28;20050;-84
2022/03/02 01:06:05;;;;;;;46.67;23.90;;;8.20;94.80;;;;;;5113684;28;20383;-84
2022/03/02 01:08:34;;;;;;;49.38;23.45;;;8.10;94.80;;;;;;5097477;28;20051;-84
2022/03/02 01:11:00;;;;;;;48.00;23.48;;;8.10;94.80;;;;;;5113612;28;20090;-83
2022/03/02 01:13:26;;;;;;;47.92;24.35;;;8.10;94.80;;;;;;5114084;27;20046;-84
2022/03/02 01:15:52;;;;;;;49.03;24.00;;;8.10;94.90;;;;;;5100248;27;20051;-84
2022/03/02 01:18:18;;;;;;;50.63;24.67;;;8.10;94.90;;;;;;5100168;27;20043;-84
2022/03/02 01:20:44;;;;;;;55.85;26.35;;;8.10;94.90;;;;;;5116892;27;20084;-84
2022/03/02 01:23:10;;;;;;;50.75;25.75;;;8.10;94.90;;;;;;5099985;27;20043;-83
2022/03/02 01:25:37;;;;;;;50.47;25.27;;;8.10;94.80;;;;;;5099524;27;20432;-84
2022/03/02 01:28:03;;;;;;;55.33;25.30;;;8.10;95.00;;;;;;5099396;27;20464;-84
2022/03/02 01:30:29;;;;;;;51.40;24.90;;;8.10;94.80;;;;;;5099896;27;20083;-84
2022/03/02 01:32:55;;;;;;;52.25;25.48;;;8.10;95.00;;;;;;5100021;27;20555;-84
2022/03/02 01:35:21;;;;;;;56.45;27.67;;;8.10;95.00;;;;;;5116949;28;20043;-84
2022/03/02 01:37:47;;;;;;;50.95;26.60;;;8.10;94.90;;;;;;5100000;27;20050;-84
2022/03/02 01:40:14;;;;;;;55.58;27.00;;;8.00;95.00;;;;;;5117019;28;20130;-84
2022/03/02 01:42:44;;;;;;;52.80;26.05;;;8.00;95.00;;;;;;5116625;27;20055;-84
2022/03/02 01:45:11;;;;;;;57.92;27.30;;;8.00;95.00;;;;;;5099221;28;20095;-84
2022/03/02 01:47:38;;;;;;;52.13;26.00;;;8.00;94.90;;;;;;5116548;28;20440;-84
2022/03/02 01:50:07;;;;;;;55.92;27.23;;;8.10;95.10;;;;;;5116537;28;20050;-84
2022/03/02 01:52:33;;;;;;;60.88;27.23;;;8.10;95.10;;;;;;5116482;28;20089;-84
2022/03/02 01:54:59;;;;;;;53.42;25.45;;;8.10;94.90;;;;;;5116674;28;20047;-84
2022/03/02 01:57:25;;;;;;;53.15;25.52;;;8.10;95.00;;;;;;5116666;28;20043;-85
2022/03/02 01:59:50;;;;;;;53.85;25.23;;;8.10;95.00;;;;;;5099570;28;20552;-84
2022/03/02 02:02:16;;;;;;;55.72;26.52;;;8.10;94.90;;;;;;5100153;28;20137;-84
2022/03/02 02:04:42;;;;;;;59.63;28.00;;;8.10;95.00;;;;;;5116768;28;20482;-84
2022/03/02 02:07:08;;;;;;;62.03;27.98;;;8.00;95.10;;;;;;5116920;28;20043;-83
2022/03/02 02:09:34;;;;;;;58.38;27.17;;;8.00;95.00;;;;;;5099431;28;20549;-84
2022/03/02 02:12:00;;;;;;;59.35;28.17;;;7.90;95.00;;;;;;5101663;27;20130;-83
2022/03/02 02:14:26;;;;;;;60.45;28.40;;;7.90;95.00;;;;;;5120104;27;20059;-84
2022/03/02 02:16:52;;;;;;;65.50;28.88;;;7.80;95.00;;;;;;5120123;27;20047;-84
2022/03/02 02:19:18;;;;;;;56.75;28.55;;;7.80;94.90;;;;;;5104033;27;20054;-84
2022/03/02 02:21:46;;;;;;;59.03;28.80;;;7.70;95.10;;;;;;5120475;27;20534;-84
2022/03/02 02:24:12;;;;;;;62.25;28.77;;;7.70;95.10;;;;;;5120122;27;20098;-84
2022/03/02 02:26:39;;;;;;;56.72;27.80;;;7.70;95.10;;;;;;5120194;27;20043;-84
2022/03/02 02:29:05;;;;;;;64.35;28.80;;;7.70;95.10;;;;;;5119520;27;20043;-84
2022/03/02 02:31:31;;;;;;;54.28;27.88;;;7.80;95.10;;;;;;5103125;27;20138;-84
2022/03/02 02:33:57;;;;;;;60.15;29.33;;;7.80;95.00;;;;;;5119857;27;20130;-84
2022/03/02 02:36:23;;;;;;;55.78;26.67;;;7.70;95.00;;;;;;5102836;27;20042;-84
2022/03/02 02:38:48;;;;;;;60.67;28.17;;;7.60;95.10;;;;;;5119704;27;20042;-84
2022/03/02 02:41:18;;;;;;;58.25;27.35;;;7.50;95.20;;;;;;5119868;27;20479;-84
2022/03/02 02:43:45;;;;;;;59.67;28.50;;;7.50;95.20;;;;;;5119583;27;20055;-84
2022/03/02 02:46:11;;;;;;;59.78;28.75;;;7.40;95.30;;;;;;5119473;27;20549;-84
2022/03/02 02:48:38;;;;;;;61.58;28.75;;;7.40;95.30;;;;;;5102775;27;20043;-84
2022/03/02 02:51:05;;;;;;;63.75;31.08;;;7.40;95.30;;;;;;5119423;27;20054;-84
2022/03/02 02:53:31;;;;;;;62.85;29.85;;;7.40;95.20;;;;;;5119651;27;20051;-84
2022/03/02 02:55:56;;;;;;;57.15;27.65;;;7.30;95.30;;;;;;5119668;27;20046;-84
2022/03/02 02:58:22;;;;;;;64.80;31.20;;;7.40;95.30;;;;;;5119193;27;20096;-84
2022/03/02 03:00:49;;;;;;;63.92;28.67;;;7.30;95.10;;;;;;5119622;27;20055;-84
2022/03/02 03:03:15;;;;;;;61.17;28.63;;;7.30;95.30;;;;;;5103240;27;20480;-84
2022/03/02 03:05:41;;;;;;;54.05;26.02;;;7.20;95.30;;;;;;5101960;27;20032;-84
2022/03/02 03:08:12;;;;;;;60.88;29.27;;;7.20;95.30;;;;;;5102243;27;20051;-85
2022/03/02 03:10:39;;;;;;;58.05;28.70;;;7.10;95.30;;;;;;5102378;27;20086;-84
2022/03/02 03:13:06;;;;;;;64.15;30.10;;;7.10;95.40;;;;;;5119372;27;20043;-84
2022/03/02 03:15:33;;;;;;;64.57;30.95;;;7.00;95.40;;;;;;5118891;27;20055;-84
2022/03/02 03:17:59;;;;;;;60.17;29.08;;;7.00;95.30;;;;;;5102400;27;20066;-84
2022/03/02 03:20:26;;;;;;;63.05;29.83;;;7.00;95.40;;;;;;5102449;27;20471;-84
2022/03/02 03:22:54;;;;;;;62.30;29.52;;;6.90;95.40;;;;;;5118192;27;20035;-84
2022/03/02 03:25:21;;;;;;;58.53;28.50;;;6.80;95.50;;;;;;5101870;27;20055;-85
2022/03/02 03:27:47;;;;;;;58.13;26.73;;;6.80;95.50;;;;;;5085093;27;20047;-85
2022/03/02 03:30:16;;;;;;;62.63;28.35;;;6.60;95.70;;;;;;5102350;27;20083;-84
2022/03/02 03:32:42;;;;;;;59.47;28.27;;;6.50;95.80;;;;;;5102704;27;20125;-84
2022/03/02 03:35:09;;;;;;;67.35;30.02;;;6.50;96.00;;;;;;5120197;27;20050;-85
2022/03/02 03:37:35;;;;;;;58.00;27.88;;;6.50;96.00;;;;;;5120086;27;20050;-85
2022/03/02 03:40:01;;;;;;;61.97;29.02;;;6.50;95.90;;;;;;5118761;27;20035;-85
2022/03/02 03:42:27;;;;;;;59.17;28.63;;;6.50;95.90;;;;;;5119135;27;20120;-83
2022/03/02 03:44:53;;;;;;;54.85;26.88;;;6.40;96.00;;;;;;5101544;27;20039;-84
2022/03/02 03:47:19;;;;;;;59.17;27.50;;;6.30;95.90;;;;;;5118662;27;20039;-84
2022/03/02 03:49:45;;;;;;;61.20;28.95;;;6.20;95.90;;;;;;5118849;27;20122;-84
2022/03/02 03:52:11;;;;;;;60.20;27.77;;;6.10;96.30;;;;;;5101494;27;20138;-84
2022/03/02 03:54:37;;;;;;;58.67;27.80;;;6.00;96.10;;;;;;5084741;27;20083;-84
2022/03/02 03:57:05;;;;;;;61.63;28.17;;;6.00;96.30;;;;;;5119201;27;20045;-84
2022/03/02 03:59:30;;;;;;;60.38;28.00;;;5.90;96.30;;;;;;5117914;27;20047;-85
2022/03/02 04:01:56;;;;;;;59.88;27.70;;;5.90;96.40;;;;;;5118871;27;20096;-84
2022/03/02 04:04:22;;;;;;;60.28;26.98;;;5.80;96.40;;;;;;5101138;27;20446;-84
2022/03/02 04:06:48;;;;;;;59.78;27.55;;;5.70;96.40;;;;;;5101327;27;20035;-84
2022/03/02 04:09:14;;;;;;;58.45;27.35;;;5.70;96.50;;;;;;5084415;27;20092;-84
2022/03/02 04:11:39;;;;;;;55.58;26.38;;;5.70;96.50;;;;;;5117985;27;20046;-84
2022/03/02 04:14:05;;;;;;;56.13;26.73;;;5.50;96.60;;;;;;5117988;27;20051;-84
2022/03/02 04:16:31;;;;;;;56.97;26.85;;;5.50;96.80;;;;;;5101680;27;20047;-84
2022/03/02 04:18:57;;;;;;;59.00;27.48;;;5.60;96.80;;;;;;5118005;27;20050;-84
2022/03/02 04:21:23;;;;;;;55.78;26.70;;;5.60;96.80;;;;;;5101306;27;20183;-85
2022/03/02 04:23:48;;;;;;;60.00;28.35;;;5.60;96.90;;;;;;5118045;27;20047;-85
2022/03/02 04:26:14;;;;;;;54.13;25.38;;;5.60;97.00;;;;;;5117656;27;20042;-85
2022/03/02 04:28:40;;;;;;;63.45;27.30;;;5.60;96.70;;;;;;5100245;27;20047;-84
2022/03/02 04:31:06;;;;;;;60.20;27.48;;;5.60;96.60;;;;;;5100777;27;20042;-84
2022/03/02 04:33:32;;;;;;;60.95;28.02;;;5.50;96.60;;;;;;5116950;28;20107;-84
2022/03/02 04:35:58;;;;;;;59.33;26.98;;;5.50;96.80;;;;;;5100800;27;20039;-84
2022/03/02 04:38:24;;;;;;;58.58;27.85;;;5.50;96.70;;;;;;5101000;27;20474;-85
2022/03/02 04:40:49;;;;;;;55.97;26.45;;;5.40;96.60;;;;;;5083562;27;20058;-84
2022/03/02 04:43:17;;;;;;;58.10;27.23;;;5.30;96.70;;;;;;5083659;27;20107;-84
2022/03/02 04:45:43;;;;;;;57.85;27.30;;;5.30;96.70;;;;;;5100050;27;20043;-84
2022/03/02 04:48:09;;;;;;;66.43;30.75;;;5.20;96.70;;;;;;5100625;27;20059;-84
2022/03/02 04:50:35;;;;;;;59.70;27.95;;;5.30;96.90;;;;;;5117333;27;20043;-84
2022/03/02 04:53:02;;;;;;;65.03;28.95;;;5.30;97.00;;;;;;5117578;27;20107;-84
2022/03/02 04:55:28;;;;;;;59.22;27.92;;;5.40;97.10;;;;;;5100175;27;20371;-84
2022/03/02 04:57:59;;;;;;;58.42;27.20;;;5.40;97.00;;;;;;5116615;27;20108;-85
2022/03/02 05:00:31;;;;;;;64.18;29.50;;;5.50;97.00;;;;;;5117270;27;20043;-84
2022/03/02 05:02:58;;;;;;;62.10;27.90;;;5.40;97.00;;;;;;5117430;27;20394;-84
2022/03/02 05:05:26;;;;;;;64.75;29.40;;;5.30;97.10;;;;;;5117358;27;20095;-84
2022/03/02 05:07:53;;;;;;;62.58;29.23;;;5.60;97.20;;;;;;5111863;27;20050;-85
2022/03/02 05:10:20;;;;;;;66.85;30.05;;;5.50;97.10;;;;;;5120562;27;20053;-84
2022/03/02 05:12:47;;;;;;;67.30;30.48;;;5.60;97.10;;;;;;5120266;27;20042;-85
2022/03/02 05:15:15;;;;;;;54.92;27.40;;;5.50;97.10;;;;;;5137284;27;20090;-84
2022/03/02 05:17:41;;;;;;;60.13;27.63;;;5.50;97.10;;;;;;5120430;27;20053;-84
2022/03/02 05:20:09;;;;;;;60.45;28.58;;;5.40;96.90;;;;;;5120445;27;20084;-84
2022/03/02 05:22:35;;;;;;;57.17;27.20;;;5.40;96.90;;;;;;5120066;27;20050;-84
2022/03/02 05:25:02;;;;;;;58.35;26.92;;;5.30;96.90;;;;;;5137110;27;20052;-84
2022/03/02 05:27:28;;;;;;;63.33;29.05;;;5.20;97.00;;;;;;5119928;27;20052;-86
2022/03/02 05:29:53;;;;;;;54.17;26.42;;;5.20;97.10;;;;;;5137320;27;20038;-84
2022/03/02 05:32:19;;;;;;;54.35;25.98;;;5.30;97.10;;;;;;5120331;27;20081;-84
2022/03/02 05:34:45;;;;;;;58.03;26.48;;;5.30;96.90;;;;;;5137303;27;20469;-85
2022/03/02 05:37:11;;;;;;;54.53;26.77;;;5.10;96.90;;;;;;5137178;27;20034;-84
2022/03/02 05:39:36;;;;;;;61.30;25.73;;;5.00;96.90;;;;;;5137288;27;20145;-84
2022/03/02 05:42:03;;;;;;;60.80;27.40;;;5.00;97.10;;;;;;5120178;27;20363;-84
2022/03/02 05:44:28;;;;;;;68.57;30.52;;;4.90;97.20;;;;;;5119718;27;20404;-84
2022/03/02 05:46:54;;;;;;;64.03;28.98;;;4.90;97.10;;;;;;5119870;27;20137;-84
2022/03/02 05:49:20;;;;;;;58.30;27.05;;;5.00;97.30;;;;;;5137009;27;20043;-84
2022/03/02 05:51:45;;;;;;;66.43;31.30;;;5.10;97.40;;;;;;5120064;27;20117;-84
2022/03/02 05:54:11;;;;;;;68.30;30.58;;;5.10;97.40;;;;;;5120038;27;20050;-84
2022/03/02 05:56:38;;;;;;;54.03;26.83;;;5.10;97.30;;;;;;5136728;27;20476;-84
2022/03/02 05:59:09;;;;;;;63.30;29.15;;;5.30;97.20;;;;;;5119530;27;20478;-84
2022/03/02 06:01:36;;;;;;;57.90;27.08;;;5.20;96.90;;;;;;5137050;27;20038;-84
2022/03/02 06:04:03;;;;;;;56.70;27.80;;;5.10;96.90;;;;;;5136950;27;20504;-84
2022/03/02 06:06:30;;;;;;;55.35;26.48;;;5.00;97.00;;;;;;5136759;27;20039;-84
2022/03/02 06:08:56;;;;;;;58.25;27.05;;;4.90;97.10;;;;;;5102812;27;20477;-84
2022/03/02 06:11:23;;;;;;;63.60;28.58;;;4.80;97.00;;;;;;5119790;27;20086;-84
2022/03/02 06:13:50;;;;;;;63.08;27.98;;;4.90;97.30;;;;;;5119537;27;20435;-84
2022/03/02 06:16:16;;;;;;;61.35;28.42;;;4.90;97.30;;;;;;5136890;27;20058;-84
2022/03/02 06:18:42;;;;;;;61.40;27.42;;;4.90;97.20;;;;;;5136874;27;20046;-84
2022/03/02 06:21:09;;;;;;;58.92;28.13;;;4.80;97.20;;;;;;5136886;27;20039;-84
2022/03/02 06:23:35;;;;;;;57.25;26.63;;;4.80;97.20;;;;;;5136868;27;20051;-84
2022/03/02 06:26:01;;;;;;;56.47;27.35;;;4.80;97.20;;;;;;5136993;27;20046;-84
2022/03/02 06:28:27;;;;;;;55.78;26.67;;;4.80;97.20;;;;;;5102338;27;20047;-84
2022/03/02 06:30:53;;;;;;;60.47;27.98;;;4.80;97.30;;;;;;5119684;27;20039;-84
2022/03/02 06:33:20;;;;;;;61.00;28.40;;;4.70;97.20;;;;;;5136752;27;20038;-84
2022/03/02 06:35:47;;;;;;;56.42;26.05;;;4.70;97.30;;;;;;5119828;27;20046;-84
2022/03/02 06:38:13;;;;;;;62.60;27.60;;;4.70;97.40;;;;;;5136645;27;20046;-84
2022/03/02 06:40:41;;;;;;;59.28;27.95;;;4.60;97.50;;;;;;5137272;27;20500;-84
2022/03/02 06:43:12;;;;;;;60.97;27.80;;;4.70;97.60;;;;;;5136881;27;20393;-83
2022/03/02 06:46:04;;;;;;;57.65;26.33;;;4.70;97.70;;;;;;5119342;27;20073;-84
2022/03/02 06:48:36;;;;;;;64.55;28.98;;;4.70;97.70;;;;;;5119644;27;20052;-84
2022/03/02 06:51:03;;;;;;;59.35;27.20;;;4.70;97.70;;;;;;5119464;27;20050;-84
2022/03/02 06:53:35;;;;;;;61.10;27.77;;;4.70;97.70;;;;;;5137157;27;20140;-84
2022/03/02 06:56:04;;;;;;;64.30;30.63;;;4.60;97.60;;;;;;5119564;27;20058;-84
2022/03/02 06:58:45;;;;;;;57.60;27.75;;;4.80;97.70;;;;;;5121893;27;20107;-84
2022/03/02 07:01:12;;;;;;;62.05;28.45;;;4.80;97.70;;;;;;5140312;27;20058;-84
2022/03/02 07:03:45;;;;;;;64.05;28.60;;;4.90;97.80;;;;;;5106387;27;20103;-84
2022/03/02 07:06:13;;;;;;;63.72;28.95;;;4.90;97.80;;;;;;5140022;27;20050;-84
2022/03/02 07:08:48;;;;;;;61.67;28.00;;;5.10;97.70;;;;;;5140241;27;20046;-84
2022/03/02 07:11:16;;;;;;;65.35;29.15;;;5.10;97.60;;;;;;5107151;27;20054;-84
2022/03/02 07:13:44;;;;;;;58.78;27.60;;;5.10;97.50;;;;;;5122622;27;20430;-84
2022/03/02 07:16:12;;;;;;;59.05;27.38;;;5.10;97.60;;;;;;5106506;27;20421;-85
2022/03/02 07:18:37;;;;;;;61.85;29.48;;;5.30;97.60;;;;;;5122673;27;20086;-84
2022/03/02 07:21:09;;;;;;;61.53;28.48;;;5.30;97.50;;;;;;5122424;27;20077;-85
2022/03/02 07:23:42;;;;;;;53.47;24.05;;;5.10;97.40;;;;;;5122667;27;20049;-77
2022/03/02 07:26:09;;;;;;;73.05;32.88;;;5.40;98.30;;;;;;5139621;27;20042;-76
2022/03/02 07:28:39;;;;;;;61.45;28.88;;;5.50;97.80;;;;;;5139164;27;20050;-77
2022/03/02 07:31:08;;;;;;;64.40;29.10;;;5.60;97.40;;;;;;5139575;27;20469;-78
2022/03/02 07:33:37;;;;;;;70.78;31.33;;;5.60;97.40;;;;;;5122737;27;20057;-79
2022/03/02 07:36:04;;;;;;;60.60;29.02;;;5.70;97.40;;;;;;5157804;27;20047;-77
2022/03/02 07:38:32;;;;;;;61.33;29.08;;;5.60;97.20;;;;;;5139601;27;20448;-77
2022/03/02 07:40:58;;;;;;;63.95;29.63;;;5.60;97.20;;;;;;5139226;27;20042;-77
2022/03/02 07:43:23;;;;;;;66.70;31.40;;;5.50;97.20;;;;;;5139282;27;20129;-77
2022/03/02 07:45:50;;;;;;;63.63;30.00;;;5.50;97.40;;;;;;5139048;27;20134;-77
2022/03/02 07:48:16;;;;;;;67.65;30.23;;;5.60;97.40;;;;;;5122422;27;20097;-77
2022/03/02 07:50:42;;;;;;;62.10;30.67;;;5.70;97.20;;;;;;5105632;27;20557;-77
2022/03/02 07:53:11;;;;;;;67.05;30.60;;;5.80;97.20;;;;;;5121952;27;20133;-78
2022/03/02 07:55:38;;;;;;;73.55;32.90;;;5.80;97.00;;;;;;5122206;27;20034;-77
2022/03/02 07:58:04;;;;;;;66.57;30.10;;;5.70;97.00;;;;;;5138881;27;20045;-77
2022/03/02 08:00:30;;;;;;;63.42;30.30;;;5.80;97.10;;;;;;5122074;27;20050;-78
2022/03/02 08:02:58;;;;;;;76.10;30.85;;;5.80;97.20;;;;;;5138680;27;20099;-77
2022/03/02 08:05:24;;;;;;;66.00;30.33;;;5.80;97.00;;;;;;5138509;27;20047;-77
2022/03/02 08:07:50;;;;;;;66.50;30.63;;;5.90;97.10;;;;;;5121444;27;20485;-77
2022/03/02 08:10:17;;;;;;;67.93;32.45;;;5.80;96.80;;;;;;5122197;27;20054;-77
2022/03/02 08:12:43;;;;;;;70.10;31.45;;;5.90;97.00;;;;;;5138990;27;20052;-77
2022/03/02 08:15:10;;;;;;;61.30;29.52;;;6.00;96.90;;;;;;5157185;27;20137;-77
2022/03/02 08:17:35;;;;;;;59.17;29.23;;;6.10;96.80;;;;;;5138200;27;20050;-76
2022/03/02 08:20:02;;;;;;;60.42;28.75;;;6.10;96.80;;;;;;5121600;27;20066;-76
2022/03/02 08:22:30;;;;;;;60.50;28.75;;;6.00;96.80;;;;;;5138245;27;20042;-77
2022/03/02 08:25:12;;;;;;;62.35;30.13;;;6.20;96.80;;;;;;5156761;27;20082;-73
2022/03/02 08:27:40;;;;;;;64.97;30.25;;;6.20;96.70;;;;;;5138961;27;20431;-76
2022/03/02 08:30:07;;;;;;;59.53;28.50;;;6.30;96.70;;;;;;5138237;27;20454;-77
2022/03/02 08:32:43;;;;;;;62.95;29.55;;;6.40;96.70;;;;;;5138983;27;20050;-81
2022/03/02 08:35:10;;;;;;;58.80;29.13;;;6.50;96.60;;;;;;5145206;27;20046;-81
2022/03/02 08:37:36;;;;;;;57.60;27.48;;;6.30;96.40;;;;;;5139156;27;20180;-77
2022/03/02 08:40:04;;;;;;;62.35;28.13;;;6.30;96.50;;;;;;5138094;27;20130;-75
2022/03/02 08:42:31;;;;;;;62.65;28.60;;;6.40;96.50;;;;;;5138507;27;20125;-75
2022/03/02 08:44:57;;;;;;;56.70;27.77;;;6.60;96.60;;;;;;5137950;27;20047;-75
2022/03/02 08:47:24;;;;;;;54.40;26.00;;;6.60;96.30;;;;;;5138270;27;20043;-76
2022/03/02 08:49:51;;;;;;;62.35;28.70;;;6.80;96.30;;;;;;5138817;27;20073;-76
2022/03/02 08:52:20;;;;;;;55.97;24.73;;;6.80;96.30;;;;;;5104025;27;20058;-77
2022/03/02 08:54:47;;;;;;;49.85;25.33;;;6.70;96.60;;;;;;5138137;27;20062;-78
2022/03/02 08:57:15;;;;;;;56.75;25.85;;;6.40;96.40;;;;;;5137925;27;20127;-78
2022/03/02 08:59:43;;;;;;;52.30;25.20;;;6.20;96.70;;;;;;5120377;27;20045;-78
2022/03/02 09:02:10;;;;;;;51.03;26.00;;;6.30;97.00;;;;;;5137794;27;20191;-79
2022/03/02 09:04:38;;;;;;;53.13;25.70;;;6.50;97.00;;;;;;5137900;27;20046;-78
2022/03/02 09:07:05;;;;;;;58.10;25.55;;;6.60;96.50;;;;;;5120671;27;20095;-76
2022/03/02 09:09:31;;;;;;;60.33;26.55;;;6.50;96.50;;;;;;5137677;27;20411;-82
2022/03/02 09:11:57;;;;;;;52.03;26.52;;;6.50;96.30;;;;;;5137722;27;20046;-76
2022/03/02 09:14:24;;;;;;;54.92;26.40;;;6.60;96.70;;;;;;5159244;27;20050;-74
2022/03/02 09:16:51;;;;;;;53.25;25.90;;;6.80;96.10;;;;;;5137553;27;20095;-78
2022/03/02 09:19:17;;;;;;;56.70;27.02;;;6.90;96.20;;;;;;5121131;27;20047;-78
2022/03/02 09:21:44;;;;;;;53.72;25.15;;;7.10;96.10;;;;;;5137447;27;20046;-78
2022/03/02 09:24:11;;;;;;;57.50;26.92;;;7.10;95.60;;;;;;5137465;27;20042;-74
2022/03/02 09:26:38;;;;;;;51.17;25.08;;;7.30;95.80;;;;;;5120062;27;20056;-74
2022/03/02 09:29:05;;;;;;;51.45;24.75;;;7.30;95.30;;;;;;5136995;27;20071;-75
2022/03/02 09:31:33;;;;;;;49.75;24.02;;;7.40;95.50;;;;;;5137150;27;20388;-76
2022/03/02 09:34:03;;;;;;;71.30;26.00;;;7.50;95.40;;;;;;5137365;27;20443;-77
2022/03/02 09:36:29;;;;;;;53.92;23.92;;;7.70;95.80;;;;;;5137352;27;20446;-77
2022/03/02 09:38:55;;;;;;;44.65;23.90;;;7.50;95.50;;;;;;5137313;27;20050;-75
2022/03/02 09:41:49;;;;;;;51.45;24.85;;;7.70;95.70;;;;;;5137243;27;20045;-75
2022/03/02 09:44:20;;;;;;;49.25;23.73;;;7.80;95.10;;;;;;5137384;27;20046;-75
2022/03/02 09:46:55;;;;;;;52.13;25.20;;;8.00;94.90;;;;;;5137028;27;20493;-75
2022/03/02 09:49:22;;;;;;;50.20;24.95;;;8.10;95.00;;;;;;5120648;27;20085;-75
2022/03/02 09:51:58;;;;;;;50.55;23.50;;;8.20;94.40;;;;;;5137128;27;20413;-75
2022/03/02 09:54:25;;;;;;;47.67;23.63;;;8.30;94.50;;;;;;5137231;27;20501;-75
2022/03/02 09:56:51;;;;;;;47.45;24.02;;;8.40;94.20;;;;;;5136846;27;20051;-75
2022/03/02 09:59:18;;;;;;;45.70;24.90;;;8.50;94.20;;;;;;5136946;27;20123;-75
2022/03/02 10:01:44;;;;;;;43.20;22.40;;;8.70;94.30;;;;;;5119593;27;20042;-75
2022/03/02 10:04:22;;;;;;;47.97;22.65;;;8.60;94.00;;;;;;5136992;27;20196;-75
2022/03/02 10:07:26;;;;;;;48.17;21.98;;;8.50;93.50;;;;;;5137035;27;20047;-75
2022/03/02 10:09:46;;;;;;;47.53;24.08;;;8.50;93.80;;;;;;5138479;27;20397;-75
2022/03/02 10:12:15;;;;;;;44.22;23.05;;;8.60;94.00;;;;;;5136742;27;20046;-74
2022/03/02 10:14:42;;;;;;;48.08;24.92;;;8.70;94.00;;;;;;5133178;27;20151;-74
2022/03/02 10:17:11;;;;;;;44.15;22.33;;;8.80;94.20;;;;;;5134493;28;20050;-73
2022/03/02 10:19:45;;;;;;;42.92;21.92;;;9.00;93.60;;;;;;5133422;28;20043;-73
2022/03/02 10:22:36;;;;;;;39.38;21.05;;;9.20;93.60;;;;;;5133389;28;20090;-79
2022/03/02 10:25:06;;;;;;;39.42;21.05;;;9.30;93.00;;;;;;5133374;28;20054;-78
2022/03/02 10:27:34;;;;;;;48.50;22.17;;;9.60;92.80;;;;;;5133326;28;20051;-80
2022/03/02 10:30:07;;;;;;;40.20;21.73;;;9.80;92.60;;;;;;5132811;28;20082;-80
2022/03/02 10:32:35;;;;;;;42.97;21.98;;;9.90;92.30;;;;;;5135015;27;20050;-80
2022/03/02 10:35:10;;;;;;;41.05;22.00;;;10.00;92.50;;;;;;5137338;27;20047;-80
2022/03/02 10:37:38;;;;;;;49.95;20.52;;;10.20;92.40;;;;;;5137366;27;20428;-74
2022/03/02 10:40:16;;;;;;;42.47;20.92;;;10.50;91.80;;;;;;5137264;27;20047;-74
2022/03/02 10:43:01;;;;;;;39.85;20.92;;;10.60;91.70;;;;;;5138952;27;20079;-75
2022/03/02 10:45:47;;;;;;;39.40;21.88;;;10.70;91.40;;;;;;5137386;27;20092;-76
2022/03/02 10:48:28;;;;;;;44.08;22.10;;;10.80;91.60;;;;;;5137040;27;20470;-76
2022/03/02 10:50:57;;;;;;;40.67;21.02;;;11.10;91.20;;;;;;5122826;27;20061;-76
2022/03/02 10:53:26;;;;;;;37.75;20.20;;;11.00;91.10;;;;;;5119758;27;20043;-76
2022/03/02 10:55:57;;;;;;;41.88;20.63;;;11.10;91.00;;;;;;5136764;27;20047;-78
2022/03/02 10:58:28;;;;;;;39.05;20.95;;;10.50;91.20;;;;;;5136322;27;20103;-77
2022/03/02 11:00:54;;;;;;;41.88;20.73;;;10.00;91.70;;;;;;5136967;27;20047;-78
2022/03/02 11:03:20;;;;;;;39.08;21.60;;;9.70;92.20;;;;;;5136842;27;20093;-77
2022/03/02 11:05:46;;;;;;;40.70;21.60;;;10.00;93.00;;;;;;5119398;27;20050;-77
2022/03/02 11:08:11;;;;;;;40.70;21.05;;;10.10;92.40;;;;;;5136621;27;20043;-77
2022/03/02 11:10:39;;;;;;;45.13;20.23;;;10.30;92.30;;;;;;5136522;27;20428;-77
2022/03/02 11:13:11;;;;;;;40.00;21.92;;;10.80;91.90;;;;;;5136547;27;20385;-77
2022/03/02 11:15:58;;;;;;;41.20;20.33;;;10.40;91.70;;;;;;5135909;27;20055;-77
2022/03/02 11:18:50;;;;;;;38.42;20.35;;;10.90;91.90;;;;;;5137131;27;20039;-77
2022/03/02 11:21:19;;;;;;;42.70;21.55;;;11.00;91.80;;;;;;5120441;27;20047;-81
2022/03/02 11:23:50;;;;;;;41.65;20.20;;;11.30;91.70;;;;;;5102605;27;20134;-80
2022/03/02 11:26:26;;;;;;;38.55;20.00;;;11.30;90.50;;;;;;5136674;27;20078;-82
2022/03/02 11:29:12;;;;;;;37.03;20.83;;;11.40;91.30;;;;;;5118906;27;20051;-76
2022/03/02 11:31:50;;;;;;;37.38;19.67;;;11.90;90.60;;;;;;5136197;27;20134;-77
2022/03/02 11:34:23;;;;;;;42.65;21.48;;;12.20;90.10;;;;;;5136306;27;20107;-77
2022/03/02 11:36:55;;;;;;;40.47;21.10;;;12.60;90.10;;;;;;5136375;27;20096;-75
2022/03/02 11:39:23;;;;;;;39.58;20.75;;;12.90;89.70;;;;;;5135688;27;20509;-75
2022/03/02 11:42:01;;;;;;;37.63;20.00;;;13.10;88.60;;;;;;5135982;27;20043;-74
2022/03/02 11:44:37;;;;;;;36.25;19.90;;;13.30;88.60;;;;;;5119240;27;20043;-75
2022/03/02 11:47:11;;;;;;;37.03;20.42;;;13.70;87.90;;;;;;5141397;27;20040;-74
2022/03/02 11:49:41;;;;;;;36.45;21.60;;;13.80;86.70;;;;;;5118976;27;20055;-74
2022/03/02 11:52:09;;;;;;;41.17;20.67;;;13.80;87.00;;;;;;5135814;27;20100;-80
2022/03/02 11:54:44;;;;;;;35.95;20.10;;;13.80;86.60;;;;;;5135844;27;20470;-81
2022/03/02 11:57:10;;;;;;;36.50;20.33;;;13.30;87.40;;;;;;5122291;27;20051;-77
2022/03/02 11:59:38;;;;;;;36.38;20.20;;;13.20;86.90;;;;;;5130658;27;20497;-77
2022/03/02 12:02:24;;;;;;;37.03;19.75;;;13.80;86.30;;;;;;5113993;28;20055;-80
2022/03/02 12:05:03;;;;;;;36.15;18.48;;;14.30;84.90;;;;;;5119585;27;20108;-75
2022/03/02 12:07:41;;;;;;;34.05;19.77;;;14.50;85.30;;;;;;5124101;27;20050;-70
2022/03/02 12:10:23;;;;;;;37.88;19.13;;;14.60;85.00;;;;;;5120200;27;20039;-83
2022/03/02 12:12:50;;;;;;;33.08;19.10;;;15.00;83.90;;;;;;5125275;27;20479;-75
2022/03/02 12:15:16;;;;;;;31.17;18.52;;;14.80;83.40;;;;;;5097023;28;20109;-75
2022/03/02 12:17:43;;;;;;;33.65;19.67;;;14.80;83.80;;;;;;5132912;27;20126;-75
2022/03/02 12:20:13;;;;;;;30.85;18.63;;;15.20;82.70;;;;;;5136132;27;20082;-75
2022/03/02 12:22:42;;;;;;;32.38;19.45;;;15.30;81.90;;;;;;5134745;27;20051;-75
2022/03/02 12:25:13;;;;;;;31.33;17.70;;;15.30;81.50;;;;;;5134486;27;20035;-77
2022/03/02 12:27:47;;;;;;;31.20;18.33;;;15.40;82.00;;;;;;5125337;27;20043;-75
2022/03/02 12:30:13;;;;;;;32.72;19.00;;;15.80;80.90;;;;;;5129709;27;20112;-75
2022/03/02 12:32:42;;;;;;;29.35;17.38;;;16.30;80.20;;;;;;5134433;27;20047;-75
2022/03/02 12:35:13;;;;;;;30.90;19.33;;;16.50;78.60;;;;;;5133509;27;20087;-77
2022/03/02 12:37:40;;;;;;;30.40;18.70;;;16.70;79.10;;;;;;5133910;27;20043;-77
2022/03/02 12:40:11;;;;;;;31.25;18.45;;;16.70;78.20;;;;;;5135361;27;20103;-74